sensor_id;sensor_type;location;lat;lon;timestamp;temperature;humidity
15152;DHT22;7676;50.900;6.234;2024-01-30T00:01:05;9.40;99.90
15152;DHT22;7676;50.900;6.234;2024-01-30T00:16:08;9.10;99.90
15152;DHT22;7676;50.900;6.234;2024-01-30T00:31:11;9.20;99.90
15152;DHT22;7676;50.900;6.234;2024-01-30T00:46:15;9.10;99.90
15152;DHT22;7676;50.900;6.234;2024-01-30T01:01:19;9.00;99.90
15152;DHT22;7676;50.900;6.234;2024-01-30T01:16:22;9.10;99.90
15152;DHT22;7676;50.900;6.234;2024-01-30T01:31:24;9.40;99.90
15152;DHT22;7676;50.900;6.234;2024-01-30T01:46:33;9.60;99.90
15152;DHT22;7676;50.900;6.234;2024-01-30T02:01:36;9.50;99.90
15152;DHT22;7676;50.900;6.234;2024-01-30T02:16:39;9.60;99.90
15152;DHT22;7676;50.900;6.234;2024-01-30T02:31:42;9.30;99.90
15152;DHT22;7676;50.900;6.234;2024-01-30T02:46:45;9.40;99.90
15152;DHT22;7676;50.900;6.234;2024-01-30T03:01:47;9.40;99.90
15152;DHT22;7676;50.900;6.234;2024-01-30T03:16:50;9.80;99.90
15152;DHT22;7676;50.900;6.234;2024-01-30T03:31:52;9.80;99.90
15152;DHT22;7676;50.900;6.234;2024-01-30T03:46:55;9.90;99.90
15152;DHT22;7676;50.900;6.234;2024-01-30T04:01:57;9.90;99.90
15152;DHT22;7676;50.900;6.234;2024-01-30T04:17:00;9.70;99.90
15152;DHT22;7676;50.900;6.234;2024-01-30T04:32:03;9.80;99.90
15152;DHT22;7676;50.900;6.234;2024-01-30T04:47:05;9.80;99.90
15152;DHT22;7676;50.900;6.234;2024-01-30T05:02:11;9.70;99.90
15152;DHT22;7676;50.900;6.234;2024-01-30T05:17:14;9.60;99.90
15152;DHT22;7676;50.900;6.234;2024-01-30T05:32:16;9.50;99.90
15152;DHT22;7676;50.900;6.234;2024-01-30T05:47:19;9.70;99.90
15152;DHT22;7676;50.900;6.234;2024-01-30T06:02:22;9.50;99.90
15152;DHT22;7676;50.900;6.234;2024-01-30T06:17:24;9.80;99.90
15152;DHT22;7676;50.900;6.234;2024-01-30T06:32:27;9.70;99.90
15152;DHT22;7676;50.900;6.234;2024-01-30T06:47:32;9.70;99.90
15152;DHT22;7676;50.900;6.234;2024-01-30T07:02:35;9.60;99.90
15152;DHT22;7676;50.900;6.234;2024-01-30T07:17:38;9.50;99.90
15152;DHT22;7676;50.900;6.234;2024-01-30T07:32:41;9.40;99.90
15152;DHT22;7676;50.900;6.234;2024-01-30T07:47:43;9.60;99.90
15152;DHT22;7676;50.900;6.234;2024-01-30T08:02:46;9.60;99.90
15152;DHT22;7676;50.900;6.234;2024-01-30T08:17:49;9.60;99.90
15152;DHT22;7676;50.900;6.234;2024-01-30T08:32:51;9.70;99.90
15152;DHT22;7676;50.900;6.234;2024-01-30T08:47:54;10.00;99.90
15152;DHT22;7676;50.900;6.234;2024-01-30T09:02:57;10.00;99.90
15152;DHT22;7676;50.900;6.234;2024-01-30T09:17:59;10.10;99.90
15152;DHT22;7676;50.900;6.234;2024-01-30T09:33:02;9.80;99.90
15152;DHT22;7676;50.900;6.234;2024-01-30T09:48:05;9.90;99.90
15152;DHT22;7676;50.900;6.234;2024-01-30T10:03:08;9.90;99.90
15152;DHT22;7676;50.900;6.234;2024-01-30T10:18:11;10.00;99.90
15152;DHT22;7676;50.900;6.234;2024-01-30T10:33:13;10.00;99.90
15152;DHT22;7676;50.900;6.234;2024-01-30T10:48:18;10.00;99.90
15152;DHT22;7676;50.900;6.234;2024-01-30T11:03:24;9.90;99.90
15152;DHT22;7676;50.900;6.234;2024-01-30T11:18:29;10.10;99.90
15152;DHT22;7676;50.900;6.234;2024-01-30T11:33:33;9.80;99.90
15152;DHT22;7676;50.900;6.234;2024-01-30T11:48:37;9.90;99.90
15152;DHT22;7676;50.900;6.234;2024-01-30T12:03:40;9.90;99.90
15152;DHT22;7676;50.900;6.234;2024-01-30T12:18:42;10.00;99.90
15152;DHT22;7676;50.900;6.234;2024-01-30T12:33:49;10.00;99.90
15152;DHT22;7676;50.900;6.234;2024-01-30T12:48:52;10.10;99.90
15152;DHT22;7676;50.900;6.234;2024-01-30T13:03:55;10.20;99.90
15152;DHT22;7676;50.900;6.234;2024-01-30T13:19:00;10.40;99.90
15152;DHT22;7676;50.900;6.234;2024-01-30T13:34:05;10.50;99.90
15152;DHT22;7676;50.900;6.234;2024-01-30T13:49:10;10.60;99.90
15152;DHT22;7676;50.900;6.234;2024-01-30T14:04:13;10.40;99.90
15152;DHT22;7676;50.900;6.234;2024-01-30T14:19:17;10.60;99.90
15152;DHT22;7676;50.900;6.234;2024-01-30T14:34:20;10.70;99.90
15152;DHT22;7676;50.900;6.234;2024-01-30T14:49:22;10.40;99.90
15152;DHT22;7676;50.900;6.234;2024-01-30T15:04:25;9.60;99.90
15152;DHT22;7676;50.900;6.234;2024-01-30T15:19:28;9.90;99.90
15152;DHT22;7676;50.900;6.234;2024-01-30T15:34:30;9.40;99.90
15152;DHT22;7676;50.900;6.234;2024-01-30T15:49:33;9.00;99.90
15152;DHT22;7676;50.900;6.234;2024-01-30T16:04:36;9.00;99.90
15152;DHT22;7676;50.900;6.234;2024-01-30T16:19:39;8.80;99.90
15152;DHT22;7676;50.900;6.234;2024-01-30T16:34:43;8.80;99.90
15152;DHT22;7676;50.900;6.234;2024-01-30T16:49:47;8.80;99.90
15152;DHT22;7676;50.900;6.234;2024-01-30T17:04:49;9.00;99.90
15152;DHT22;7676;50.900;6.234;2024-01-30T17:19:52;9.00;99.90
15152;DHT22;7676;50.900;6.234;2024-01-30T17:34:55;8.80;99.90
15152;DHT22;7676;50.900;6.234;2024-01-30T17:49:57;8.80;99.90
15152;DHT22;7676;50.900;6.234;2024-01-30T18:05:01;8.60;99.90
15152;DHT22;7676;50.900;6.234;2024-01-30T18:20:05;8.50;99.90
15152;DHT22;7676;50.900;6.234;2024-01-30T18:35:08;8.30;99.90
15152;DHT22;7676;50.900;6.234;2024-01-30T18:50:13;8.70;99.90
15152;DHT22;7676;50.900;6.234;2024-01-30T19:05:15;8.80;99.90
15152;DHT22;7676;50.900;6.234;2024-01-30T19:20:18;8.80;99.90
15152;DHT22;7676;50.900;6.234;2024-01-30T19:35:22;8.50;99.90
15152;DHT22;7676;50.900;6.234;2024-01-30T19:50:25;8.80;99.90
15152;DHT22;7676;50.900;6.234;2024-01-30T20:05:28;8.60;99.90
15152;DHT22;7676;50.900;6.234;2024-01-30T20:20:31;8.20;99.90
15152;DHT22;7676;50.900;6.234;2024-01-30T20:35:34;8.30;99.90
15152;DHT22;7676;50.900;6.234;2024-01-30T20:50:37;8.40;99.90
15152;DHT22;7676;50.900;6.234;2024-01-30T21:05:39;8.40;99.90
15152;DHT22;7676;50.900;6.234;2024-01-30T21:20:43;8.40;99.90
15152;DHT22;7676;50.900;6.234;2024-01-30T21:35:51;8.10;99.90
15152;DHT22;7676;50.900;6.234;2024-01-30T21:50:54;8.20;99.90
15152;DHT22;7676;50.900;6.234;2024-01-30T22:05:56;8.20;99.90
15152;DHT22;7676;50.900;6.234;2024-01-30T22:20:59;8.40;99.90
15152;DHT22;7676;50.900;6.234;2024-01-30T22:36:01;8.10;99.90
15152;DHT22;7676;50.900;6.234;2024-01-30T22:51:05;8.40;99.90
15152;DHT22;7676;50.900;6.234;2024-01-30T23:06:11;8.00;99.90
15152;DHT22;7676;50.900;6.234;2024-01-30T23:21:18;7.90;99.90
15152;DHT22;7676;50.900;6.234;2024-01-30T23:36:21;8.10;99.90
15152;DHT22;7676;50.900;6.234;2024-01-30T23:51:23;8.20;99.90
